Time;durP1;ratioP1;P1;durP2;ratioP2;P2;SDS_P1;SDS_P2;PMS_P1;PMS_P2;Temp;Humidity;BMP_temperature;BMP_pressure;BME280_temperature;BME280_humidity;BME280_pressure;Samples;Min_cycle;Max_cycle;Signal;HPM_P1;HPM_P2
2022/02/27 00:01:07;;;;;;;18.05;6.30;;;4.00;76.10;;;;;;5005361;28;20029;-75
2022/02/27 00:03:32;;;;;;;16.77;7.00;;;4.00;76.20;;;;;;5006217;28;20543;-75
2022/02/27 00:05:58;;;;;;;16.70;7.60;;;4.00;76.20;;;;;;5001643;28;20034;-75
2022/02/27 00:08:23;;;;;;;14.52;7.35;;;4.00;76.30;;;;;;5006005;28;20038;-74
2022/02/27 00:10:49;;;;;;;12.43;6.40;;;4.00;76.30;;;;;;5009244;28;20037;-75
2022/02/27 00:13:14;;;;;;;18.42;7.53;;;3.90;76.20;;;;;;5004748;28;20025;-74
2022/02/27 00:15:40;;;;;;;16.70;7.00;;;3.90;76.30;;;;;;5004738;28;20026;-75
2022/02/27 00:18:06;;;;;;;15.30;6.80;;;3.90;76.30;;;;;;5007444;28;20030;-75
2022/02/27 00:20:32;;;;;;;13.52;6.55;;;3.90;76.30;;;;;;5008088;28;20033;-75
2022/02/27 00:22:58;;;;;;;17.95;6.95;;;3.90;76.30;;;;;;5007474;28;20022;-75
2022/02/27 00:25:24;;;;;;;12.43;5.95;;;3.90;76.20;;;;;;5010071;28;20125;-75
2022/02/27 00:27:49;;;;;;;17.25;7.13;;;3.90;76.20;;;;;;5004513;28;20787;-74
2022/02/27 00:30:15;;;;;;;12.70;6.13;;;4.00;76.20;;;;;;5007400;28;20026;-75
2022/02/27 00:32:41;;;;;;;11.77;6.20;;;3.90;76.20;;;;;;5004978;28;20519;-75
2022/02/27 00:35:07;;;;;;;16.23;7.03;;;3.90;76.20;;;;;;5007224;28;20025;-74
2022/02/27 00:37:34;;;;;;;18.48;7.07;;;3.90;76.20;;;;;;5006974;28;20017;-74
2022/02/27 00:40:00;;;;;;;17.73;6.55;;;3.90;76.20;;;;;;5009593;28;20108;-74
2022/02/27 00:42:25;;;;;;;12.77;5.70;;;3.80;76.10;;;;;;5007528;28;20109;-75
2022/02/27 00:44:51;;;;;;;12.63;5.65;;;3.80;76.20;;;;;;5007785;28;20029;-75
2022/02/27 00:47:16;;;;;;;16.30;6.40;;;3.80;76.10;;;;;;5006055;28;20048;-75
2022/02/27 00:49:42;;;;;;;16.63;6.18;;;3.80;76.20;;;;;;5006022;28;20670;-75
2022/02/27 00:52:08;;;;;;;16.45;6.45;;;3.80;76.20;;;;;;5003857;28;20045;-76
2022/02/27 00:54:33;;;;;;;12.45;5.32;;;3.80;76.20;;;;;;5005642;28;20046;-75
2022/02/27 00:56:59;;;;;;;17.15;6.22;;;3.80;76.20;;;;;;5004961;28;20436;-74
2022/02/27 00:59:25;;;;;;;14.57;5.38;;;3.90;76.10;;;;;;5004577;28;20287;-75
2022/02/27 01:01:50;;;;;;;13.98;6.32;;;3.80;76.00;;;;;;5005893;28;20022;-74
2022/02/27 01:04:16;;;;;;;10.30;5.10;;;3.80;76.00;;;;;;5008265;28;20042;-73
2022/02/27 01:06:41;;;;;;;13.70;5.57;;;3.80;76.00;;;;;;5006622;28;20439;-73
2022/02/27 01:09:07;;;;;;;11.90;5.28;;;3.80;76.00;;;;;;5007391;28;20026;-74
2022/02/27 01:11:34;;;;;;;12.18;5.15;;;3.80;75.90;;;;;;5006546;28;20393;-74
2022/02/27 01:14:01;;;;;;;13.60;5.82;;;3.80;75.90;;;;;;5006888;28;20073;-73
2022/02/27 01:16:28;;;;;;;13.85;6.75;;;3.80;75.90;;;;;;5007537;28;20029;-73
2022/02/27 01:18:54;;;;;;;10.27;4.78;;;3.90;75.90;;;;;;5007251;28;20096;-74
2022/02/27 01:21:20;;;;;;;14.98;6.57;;;3.80;75.90;;;;;;5008087;28;20025;-74
2022/02/27 01:23:47;;;;;;;10.07;4.95;;;3.80;75.90;;;;;;5008396;28;20072;-74
2022/02/27 01:26:13;;;;;;;14.05;5.53;;;3.80;76.50;;;;;;5007485;28;20026;-74
2022/02/27 01:28:40;;;;;;;12.50;5.25;;;3.80;75.90;;;;;;5006912;28;20037;-75
2022/02/27 01:31:08;;;;;;;13.80;6.03;;;3.80;75.90;;;;;;5005678;28;20031;-74
2022/02/27 01:33:34;;;;;;;9.50;5.20;;;3.80;75.80;;;;;;5007867;28;20038;-74
2022/02/27 01:36:00;;;;;;;11.20;4.78;;;3.70;75.60;;;;;;5008371;28;20118;-74
2022/02/27 01:38:26;;;;;;;11.07;5.10;;;3.80;75.70;;;;;;5008713;28;20041;-73
2022/02/27 01:40:51;;;;;;;12.68;5.47;;;3.80;75.70;;;;;;5006461;28;20069;-74
2022/02/27 01:43:17;;;;;;;12.40;5.13;;;3.70;75.70;;;;;;5009274;28;20041;-74
2022/02/27 01:45:43;;;;;;;14.50;5.60;;;3.70;75.80;;;;;;5004784;28;20084;-74
2022/02/27 01:48:08;;;;;;;17.05;6.22;;;3.70;75.80;;;;;;5006840;28;20026;-74
2022/02/27 01:50:34;;;;;;;11.18;4.78;;;3.70;75.80;;;;;;5006435;28;20435;-74
2022/02/27 01:53:00;;;;;;;14.85;5.43;;;3.70;75.90;;;;;;5008847;28;20038;-74
2022/02/27 01:55:26;;;;;;;11.65;5.50;;;3.70;75.80;;;;;;5006353;28;20030;-74
2022/02/27 01:57:51;;;;;;;13.82;4.95;;;3.70;75.80;;;;;;5006937;28;20029;-74
2022/02/27 02:00:17;;;;;;;12.25;5.38;;;3.60;75.80;;;;;;5010794;28;20041;-74
2022/02/27 02:02:44;;;;;;;12.43;5.13;;;3.60;75.80;;;;;;5012557;28;20034;-74
2022/02/27 02:05:10;;;;;;;12.00;5.15;;;3.60;75.80;;;;;;5012494;28;20022;-74
2022/02/27 02:07:35;;;;;;;12.00;5.28;;;3.60;75.90;;;;;;5010364;28;20033;-74
2022/02/27 02:10:03;;;;;;;11.20;4.43;;;3.70;75.90;;;;;;5011028;28;20041;-74
2022/02/27 02:12:29;;;;;;;15.02;5.43;;;3.70;75.80;;;;;;5008384;28;20477;-74
2022/02/27 02:14:55;;;;;;;8.13;3.58;;;3.70;75.80;;;;;;5010886;28;20040;-73
2022/02/27 02:17:20;;;;;;;9.40;3.78;;;3.70;75.80;;;;;;5009544;28;20026;-74
2022/02/27 02:19:46;;;;;;;11.32;4.68;;;3.70;75.70;;;;;;5009929;28;20044;-73
2022/02/27 02:22:13;;;;;;;12.10;5.03;;;3.70;75.70;;;;;;5011116;28;20053;-73
2022/02/27 02:24:38;;;;;;;9.75;4.65;;;3.70;75.70;;;;;;5011009;28;20037;-73
2022/02/27 02:27:04;;;;;;;11.52;4.47;;;3.70;75.70;;;;;;5008846;28;21203;-73
2022/02/27 02:29:29;;;;;;;10.88;4.40;;;3.70;75.70;;;;;;5009353;28;20412;-73
2022/02/27 02:31:57;;;;;;;8.35;4.05;;;3.70;75.70;;;;;;5010422;28;20025;-73
2022/02/27 02:34:24;;;;;;;9.90;3.90;;;3.70;75.70;;;;;;5010432;28;20084;-73
2022/02/27 02:36:50;;;;;;;8.15;4.28;;;3.60;75.70;;;;;;5010125;28;20049;-73
2022/02/27 02:39:19;;;;;;;11.07;4.60;;;3.60;75.80;;;;;;5012441;28;20030;-73
2022/02/27 02:41:45;;;;;;;15.25;5.50;;;3.60;75.80;;;;;;5006814;28;20531;-73
2022/02/27 02:44:12;;;;;;;14.40;5.00;;;3.60;75.80;;;;;;5010909;28;20026;-73
2022/02/27 02:46:37;;;;;;;10.55;4.50;;;3.60;76.00;;;;;;5009322;28;20018;-73
2022/02/27 02:49:05;;;;;;;10.75;4.85;;;3.60;76.00;;;;;;5009312;28;20034;-73
2022/02/27 02:51:30;;;;;;;10.80;5.00;;;3.60;76.00;;;;;;5009349;28;20941;-73
2022/02/27 02:53:56;;;;;;;11.40;4.45;;;3.60;76.10;;;;;;5010922;28;20045;-74
2022/02/27 02:56:21;;;;;;;13.35;5.20;;;3.60;76.10;;;;;;5011035;28;20026;-74
2022/02/27 02:58:47;;;;;;;11.38;5.15;;;3.60;76.00;;;;;;5010054;28;20041;-73
2022/02/27 03:01:15;;;;;;;10.25;4.80;;;3.70;76.10;;;;;;5011659;28;20025;-74
2022/02/27 03:03:43;;;;;;;9.05;4.90;;;3.50;76.00;;;;;;5010094;28;20044;-73
2022/02/27 03:06:10;;;;;;;14.20;5.05;;;3.50;76.10;;;;;;5010442;28;20380;-73
2022/02/27 03:08:40;;;;;;;10.90;4.30;;;3.50;76.20;;;;;;5008583;28;20026;-73
2022/02/27 03:11:05;;;;;;;17.70;5.65;;;3.50;76.30;;;;;;5008073;28;20381;-73
2022/02/27 03:13:31;;;;;;;13.18;5.32;;;3.40;76.30;;;;;;5009650;28;20048;-73
2022/02/27 03:15:56;;;;;;;12.35;5.45;;;3.40;76.40;;;;;;5007253;28;20104;-73
2022/02/27 03:18:22;;;;;;;11.57;5.25;;;3.30;76.60;;;;;;5007625;28;20033;-73
2022/02/27 03:20:48;;;;;;;11.75;5.32;;;3.30;76.70;;;;;;5009636;28;20487;-73
2022/02/27 03:23:13;;;;;;;11.70;5.35;;;3.40;76.80;;;;;;5010351;28;20895;-74
2022/02/27 03:25:39;;;;;;;12.95;5.25;;;3.20;76.80;;;;;;5009425;28;20257;-73
2022/02/27 03:28:05;;;;;;;11.57;5.20;;;3.30;76.90;;;;;;5008857;28;20404;-74
2022/02/27 03:30:30;;;;;;;14.32;5.30;;;3.30;77.00;;;;;;5003957;28;20052;-73
2022/02/27 03:32:57;;;;;;;10.35;5.20;;;3.20;77.00;;;;;;5009783;28;20073;-73
2022/02/27 03:35:22;;;;;;;10.52;4.68;;;3.30;77.20;;;;;;5010078;28;20056;-73
2022/02/27 03:37:50;;;;;;;12.35;4.95;;;3.20;77.20;;;;;;5007687;28;20018;-74
2022/02/27 03:40:19;;;;;;;10.88;4.40;;;3.20;77.40;;;;;;5009074;28;20393;-73
2022/02/27 03:42:45;;;;;;;9.27;4.47;;;3.20;77.40;;;;;;5005571;28;20471;-73
2022/02/27 03:45:13;;;;;;;12.45;4.88;;;3.20;77.40;;;;;;5010671;28;20535;-73
2022/02/27 03:47:40;;;;;;;12.13;5.75;;;3.20;77.30;;;;;;5008322;28;20018;-74
2022/02/27 03:50:07;;;;;;;7.60;4.15;;;3.20;77.30;;;;;;5009294;28;20117;-74
2022/02/27 03:52:34;;;;;;;10.70;4.35;;;3.30;77.40;;;;;;5007348;28;20022;-73
2022/02/27 03:55:04;;;;;;;11.25;4.43;;;3.20;77.30;;;;;;5010588;28;20025;-74
2022/02/27 03:57:30;;;;;;;9.40;4.15;;;3.20;77.30;;;;;;5005987;28;20026;-74
2022/02/27 03:59:55;;;;;;;11.35;4.30;;;3.30;77.30;;;;;;5009904;28;20030;-74
2022/02/27 04:02:21;;;;;;;11.93;5.00;;;3.30;77.30;;;;;;5002429;28;20030;-75
2022/02/27 04:04:47;;;;;;;10.68;4.60;;;3.30;77.20;;;;;;5016795;28;20505;-74
2022/02/27 04:07:12;;;;;;;13.02;5.07;;;3.30;77.30;;;;;;5007326;28;20022;-74
2022/02/27 04:09:38;;;;;;;10.80;4.30;;;3.20;77.30;;;;;;5007969;28;20057;-74
2022/02/27 04:12:03;;;;;;;13.10;4.70;;;3.20;77.30;;;;;;5007864;28;20022;-73
2022/02/27 04:14:29;;;;;;;8.90;4.60;;;3.20;77.40;;;;;;5007710;28;20048;-73
2022/02/27 04:16:55;;;;;;;10.25;4.93;;;3.20;77.40;;;;;;5008274;28;20664;-74
2022/02/27 04:19:20;;;;;;;12.93;4.72;;;3.20;77.50;;;;;;5010152;28;20073;-73
2022/02/27 04:21:47;;;;;;;7.97;4.20;;;3.20;77.60;;;;;;5006661;28;20117;-74
2022/02/27 04:24:13;;;;;;;12.68;4.78;;;3.20;77.70;;;;;;5007313;28;20128;-74
2022/02/27 04:26:38;;;;;;;13.40;5.38;;;3.10;77.70;;;;;;5007483;28;20571;-74
2022/02/27 04:29:04;;;;;;;11.45;5.32;;;3.10;77.80;;;;;;5009695;28;20049;-74
2022/02/27 04:31:29;;;;;;;14.68;5.80;;;3.00;78.00;;;;;;5009873;28;20033;-73
2022/02/27 04:33:55;;;;;;;11.20;5.07;;;3.00;78.20;;;;;;5009649;28;20435;-73
2022/02/27 04:36:20;;;;;;;9.65;4.35;;;3.00;78.20;;;;;;5009825;28;20029;-73
2022/02/27 04:38:46;;;;;;;10.95;5.20;;;3.00;78.20;;;;;;5008946;28;20040;-73
2022/02/27 04:41:18;;;;;;;11.60;4.45;;;3.00;78.20;;;;;;5009210;28;20116;-73
2022/02/27 04:43:46;;;;;;;12.13;4.60;;;3.00;78.20;;;;;;5002413;28;20030;-74
2022/02/27 04:46:12;;;;;;;12.02;5.32;;;3.00;78.20;;;;;;5007983;28;20072;-73
2022/02/27 04:48:38;;;;;;;11.13;5.03;;;3.00;78.30;;;;;;5007368;28;20534;-73
2022/02/27 04:51:03;;;;;;;14.23;6.13;;;3.00;78.30;;;;;;5006650;28;20030;-73
2022/02/27 04:53:29;;;;;;;14.35;5.32;;;2.90;78.30;;;;;;5007724;28;20049;-73
2022/02/27 04:55:55;;;;;;;9.98;5.15;;;3.00;78.40;;;;;;5009024;28;20104;-73
2022/02/27 04:58:20;;;;;;;13.70;5.70;;;2.90;78.40;;;;;;5006566;28;20057;-74
2022/02/27 05:00:46;;;;;;;12.00;4.88;;;2.90;78.40;;;;;;5007361;28;20029;-73
2022/02/27 05:03:11;;;;;;;10.95;5.30;;;2.90;78.50;;;;;;5009890;28;20026;-73
2022/02/27 05:05:37;;;;;;;12.18;5.03;;;2.90;78.50;;;;;;5007732;28;21914;-73
2022/02/27 05:08:02;;;;;;;11.93;5.20;;;2.90;78.60;;;;;;5004452;28;20018;-73
2022/02/27 05:10:28;;;;;;;13.02;5.85;;;2.80;78.60;;;;;;5007527;28;20032;-73
2022/02/27 05:12:53;;;;;;;18.15;9.02;;;2.80;78.70;;;;;;5007494;28;20037;-73
2022/02/27 05:15:19;;;;;;;12.65;5.95;;;2.80;78.70;;;;;;5005330;28;20031;-73
2022/02/27 05:17:44;;;;;;;10.93;5.22;;;2.80;78.70;;;;;;5007019;28;20033;-73
2022/02/27 05:20:11;;;;;;;11.93;4.85;;;2.80;78.80;;;;;;5008347;28;20112;-73
2022/02/27 05:22:42;;;;;;;10.50;4.82;;;2.80;78.80;;;;;;5009488;28;20022;-73
2022/02/27 05:25:08;;;;;;;13.45;4.68;;;2.80;78.90;;;;;;5008591;28;20072;-73
2022/02/27 05:27:34;;;;;;;10.15;4.47;;;2.80;78.90;;;;;;5005462;28;20420;-73
2022/02/27 05:29:59;;;;;;;11.98;5.25;;;2.80;78.80;;;;;;5006913;28;20026;-73
2022/02/27 05:32:25;;;;;;;11.27;4.70;;;2.80;78.70;;;;;;5005525;28;20038;-75
2022/02/27 05:34:50;;;;;;;11.98;5.13;;;2.80;78.70;;;;;;5011813;28;20417;-74
2022/02/27 05:37:16;;;;;;;11.55;5.00;;;2.80;78.70;;;;;;5009250;28;20014;-74
2022/02/27 05:39:41;;;;;;;15.75;5.82;;;2.80;78.70;;;;;;5010364;28;20109;-73
2022/02/27 05:42:07;;;;;;;14.02;5.90;;;2.70;78.80;;;;;;5012402;28;20096;-74
2022/02/27 05:44:34;;;;;;;11.32;5.30;;;2.70;78.80;;;;;;5009788;28;20025;-73
2022/02/27 05:47:00;;;;;;;8.95;4.80;;;2.70;78.80;;;;;;5010533;28;20042;-73
2022/02/27 05:49:25;;;;;;;12.25;5.53;;;2.70;78.80;;;;;;5009662;28;20022;-74
2022/02/27 05:51:50;;;;;;;11.88;4.78;;;2.80;78.80;;;;;;5013393;28;20025;-73
2022/02/27 05:54:16;;;;;;;16.05;5.97;;;2.80;78.70;;;;;;5011270;28;20041;-73
2022/02/27 05:56:42;;;;;;;11.70;5.50;;;2.70;78.60;;;;;;5011543;28;20029;-73
2022/02/27 05:59:07;;;;;;;13.15;5.50;;;2.70;78.70;;;;;;5009080;28;20428;-73
2022/02/27 06:01:33;;;;;;;13.40;5.47;;;2.70;78.70;;;;;;5010730;28;20029;-73
2022/02/27 06:03:59;;;;;;;13.10;5.28;;;2.70;78.70;;;;;;5012484;28;20500;-74
2022/02/27 06:06:24;;;;;;;14.32;5.63;;;2.60;78.70;;;;;;5009731;28;20037;-73
2022/02/27 06:08:50;;;;;;;13.23;6.25;;;2.70;78.80;;;;;;5010139;28;20037;-73
2022/02/27 06:11:15;;;;;;;8.85;4.90;;;2.60;78.70;;;;;;5011323;28;20021;-73
2022/02/27 06:13:41;;;;;;;9.75;5.18;;;2.70;78.80;;;;;;5009722;28;20044;-73
2022/02/27 06:16:06;;;;;;;9.80;5.15;;;2.70;78.70;;;;;;5009840;28;20164;-73
2022/02/27 06:18:32;;;;;;;11.95;5.15;;;2.70;78.60;;;;;;5004266;28;20076;-73
2022/02/27 06:20:57;;;;;;;15.65;6.30;;;2.70;78.60;;;;;;5009197;28;20084;-73
2022/02/27 06:23:23;;;;;;;14.02;5.45;;;2.70;78.60;;;;;;5008853;28;20018;-73
2022/02/27 06:25:48;;;;;;;9.98;5.00;;;2.70;78.50;;;;;;5007176;28;20640;-73
2022/02/27 06:28:14;;;;;;;13.48;5.88;;;2.70;78.50;;;;;;4998837;28;20515;-73
2022/02/27 06:30:39;;;;;;;13.15;6.10;;;2.70;78.30;;;;;;5006561;28;20050;-73
2022/02/27 06:33:05;;;;;;;15.48;6.00;;;2.70;78.30;;;;;;5010144;28;20088;-73
2022/02/27 06:35:30;;;;;;;8.02;4.50;;;2.70;78.30;;;;;;5010456;28;20476;-72
2022/02/27 06:37:56;;;;;;;10.88;5.30;;;2.70;78.40;;;;;;5007300;28;20048;-73
2022/02/27 06:40:22;;;;;;;11.50;5.40;;;2.60;78.40;;;;;;5010624;28;20036;-73
2022/02/27 06:42:48;;;;;;;11.77;6.07;;;2.60;78.40;;;;;;5009856;28;20025;-74
2022/02/27 06:45:16;;;;;;;11.02;5.53;;;2.60;78.40;;;;;;5010065;28;20036;-73
2022/02/27 06:47:42;;;;;;;12.02;5.57;;;2.60;78.40;;;;;;5009295;28;20028;-73
2022/02/27 06:50:09;;;;;;;16.17;6.45;;;2.60;78.40;;;;;;5009258;28;20025;-73
2022/02/27 06:52:35;;;;;;;11.27;5.60;;;2.70;78.40;;;;;;5010802;28;20105;-73
2022/02/27 06:55:01;;;;;;;11.18;6.00;;;2.70;78.30;;;;;;5008855;28;20459;-73
2022/02/27 06:57:26;;;;;;;15.15;6.90;;;2.70;78.20;;;;;;5007715;28;20034;-73
2022/02/27 06:59:52;;;;;;;9.57;5.20;;;2.70;78.80;;;;;;5004122;28;20064;-73
2022/02/27 07:02:17;;;;;;;11.82;5.70;;;2.70;78.20;;;;;;5017594;28;20021;-73
2022/02/27 07:04:43;;;;;;;12.82;5.93;;;2.70;78.10;;;;;;5020415;28;20026;-72
2022/02/27 07:07:08;;;;;;;13.57;5.40;;;2.70;78.10;;;;;;5009761;28;20037;-72
2022/02/27 07:09:34;;;;;;;11.57;5.78;;;2.80;78.00;;;;;;5008463;28;20076;-72
2022/02/27 07:12:00;;;;;;;11.90;5.85;;;2.90;77.70;;;;;;5009493;28;20068;-73
2022/02/27 07:14:25;;;;;;;11.90;5.75;;;2.90;77.50;;;;;;5008518;28;20120;-73
2022/02/27 07:16:51;;;;;;;12.98;5.18;;;2.90;77.20;;;;;;5013909;28;20026;-72
2022/02/27 07:19:17;;;;;;;9.07;4.63;;;3.00;77.20;;;;;;5006598;28;20033;-75
2022/02/27 07:21:43;;;;;;;12.13;5.65;;;3.00;77.10;;;;;;5000754;28;20030;-74
2022/02/27 07:24:09;;;;;;;11.88;5.07;;;3.10;76.80;;;;;;5003982;28;20025;-73
2022/02/27 07:26:34;;;;;;;9.85;5.30;;;3.10;76.70;;;;;;5004068;28;20032;-73
2022/02/27 07:29:00;;;;;;;10.23;5.65;;;3.20;76.50;;;;;;5009518;28;20026;-73
2022/02/27 07:31:25;;;;;;;11.38;5.55;;;3.20;76.30;;;;;;5006206;28;20022;-76
2022/02/27 07:33:51;;;;;;;7.97;4.80;;;3.30;76.20;;;;;;5006652;28;20412;-74
2022/02/27 07:36:18;;;;;;;12.80;5.55;;;3.40;76.00;;;;;;5007095;28;20076;-73
2022/02/27 07:38:46;;;;;;;11.55;5.25;;;3.40;75.80;;;;;;5007255;28;20045;-74
2022/02/27 07:41:12;;;;;;;11.23;4.88;;;3.40;75.60;;;;;;5006576;28;20469;-73
2022/02/27 07:43:38;;;;;;;11.48;5.38;;;3.50;75.60;;;;;;5002776;28;20049;-75
2022/02/27 07:46:04;;;;;;;12.80;5.32;;;3.50;75.20;;;;;;5004087;28;20468;-75
2022/02/27 07:48:30;;;;;;;8.93;4.78;;;3.60;75.10;;;;;;5007810;28;20061;-76
2022/02/27 07:50:55;;;;;;;11.25;4.85;;;3.70;75.00;;;;;;5005035;28;20061;-75
2022/02/27 07:53:21;;;;;;;9.43;4.80;;;3.70;74.60;;;;;;5007068;28;20026;-76
2022/02/27 07:55:47;;;;;;;8.98;4.68;;;3.80;75.00;;;;;;5006012;28;20026;-73
2022/02/27 07:58:13;;;;;;;10.50;5.22;;;3.90;74.20;;;;;;5003150;28;20026;-74
2022/02/27 08:00:40;;;;;;;12.02;5.03;;;3.90;73.60;;;;;;5004642;28;20022;-74
2022/02/27 08:03:07;;;;;;;13.23;4.60;;;4.00;73.50;;;;;;5009305;28;20065;-74
2022/02/27 08:05:33;;;;;;;9.68;4.72;;;4.00;73.00;;;;;;5010412;28;20381;-73
2022/02/27 08:07:58;;;;;;;10.10;4.93;;;4.10;72.90;;;;;;5009514;28;20021;-75
2022/02/27 08:10:25;;;;;;;10.02;4.88;;;4.20;72.50;;;;;;5013323;28;20026;-74
2022/02/27 08:12:51;;;;;;;12.32;5.30;;;4.20;72.20;;;;;;5010454;28;20587;-74
2022/02/27 08:15:17;;;;;;;9.90;4.47;;;4.20;72.20;;;;;;5001581;28;20073;-72
2022/02/27 08:17:43;;;;;;;11.88;5.00;;;4.30;72.30;;;;;;5010989;28;20053;-72
2022/02/27 08:20:10;;;;;;;10.88;5.57;;;4.30;72.00;;;;;;5003686;28;20026;-72
2022/02/27 08:22:37;;;;;;;10.95;5.43;;;4.40;71.90;;;;;;5003032;28;20026;-72
2022/02/27 08:25:12;;;;;;;12.45;5.63;;;4.40;71.60;;;;;;5004626;28;20158;-72
2022/02/27 08:27:38;;;;;;;12.30;5.43;;;4.40;71.50;;;;;;5002787;28;20029;-72
2022/02/27 08:30:05;;;;;;;10.48;5.30;;;4.50;71.30;;;;;;5004422;28;20481;-71
2022/02/27 08:32:31;;;;;;;9.70;4.95;;;4.50;71.00;;;;;;5005675;28;20113;-72
2022/02/27 08:34:58;;;;;;;8.98;5.38;;;4.50;70.50;;;;;;5002267;28;20038;-72
2022/02/27 08:37:24;;;;;;;13.15;5.40;;;4.60;70.10;;;;;;5003427;28;20014;-72
2022/02/27 08:39:49;;;;;;;10.90;5.40;;;4.60;69.80;;;;;;5001652;28;20546;-72
2022/02/27 08:42:15;;;;;;;11.30;5.00;;;4.70;69.70;;;;;;5004971;28;20026;-73
2022/02/27 08:44:40;;;;;;;7.22;4.00;;;4.90;69.50;;;;;;5003742;28;20038;-72
2022/02/27 08:47:06;;;;;;;9.73;4.88;;;4.80;69.60;;;;;;5002513;28;20088;-72
2022/02/27 08:49:35;;;;;;;9.57;5.05;;;4.90;69.20;;;;;;5008818;28;20026;-72
2022/02/27 08:52:01;;;;;;;10.15;5.45;;;4.90;68.70;;;;;;5004154;28;20403;-72
2022/02/27 08:54:27;;;;;;;10.45;5.07;;;5.00;67.90;;;;;;5010577;28;20040;-72
2022/02/27 08:56:52;;;;;;;14.00;5.30;;;5.10;68.40;;;;;;4997050;28;20632;-73
2022/02/27 08:59:18;;;;;;;10.02;5.13;;;5.10;68.20;;;;;;5005197;28;20038;-73
2022/02/27 09:01:43;;;;;;;11.88;5.68;;;5.20;67.80;;;;;;5003552;28;20018;-73
2022/02/27 09:04:09;;;;;;;9.93;4.72;;;5.20;67.10;;;;;;5003613;28;20620;-72
2022/02/27 09:06:37;;;;;;;12.32;5.30;;;5.20;67.60;;;;;;5001866;28;20050;-72
2022/02/27 09:09:03;;;;;;;11.02;5.60;;;5.30;67.20;;;;;;5005482;28;20025;-72
2022/02/27 09:11:29;;;;;;;11.18;4.78;;;5.30;66.60;;;;;;5005847;28;20030;-73
2022/02/27 09:13:59;;;;;;;9.55;5.32;;;5.30;66.90;;;;;;5000645;28;20114;-72
2022/02/27 09:16:24;;;;;;;9.77;5.10;;;5.40;66.40;;;;;;5004202;28;20054;-72
2022/02/27 09:18:50;;;;;;;9.80;5.15;;;5.40;66.50;;;;;;5004584;28;20080;-73
2022/02/27 09:21:16;;;;;;;10.95;5.88;;;5.40;66.20;;;;;;5007964;28;20018;-74
2022/02/27 09:23:41;;;;;;;9.77;5.57;;;5.50;66.20;;;;;;5001093;28;20361;-74
2022/02/27 09:26:07;;;;;;;9.95;5.10;;;5.50;66.30;;;;;;5003811;28;20029;-73
2022/02/27 09:28:33;;;;;;;10.90;5.10;;;5.60;66.30;;;;;;5004773;28;20081;-73
2022/02/27 09:30:58;;;;;;;10.82;5.32;;;5.60;66.50;;;;;;5006466;28;20026;-72
2022/02/27 09:33:24;;;;;;;10.35;5.50;;;5.70;66.80;;;;;;5005327;28;20125;-73
2022/02/27 09:35:53;;;;;;;11.55;5.40;;;5.70;66.50;;;;;;5002728;28;20033;-73
2022/02/27 09:38:19;;;;;;;10.80;5.15;;;5.80;66.60;;;;;;5002697;28;20026;-73
2022/02/27 09:40:50;;;;;;;9.13;4.30;;;5.90;67.00;;;;;;5002826;28;20503;-73
2022/02/27 09:43:19;;;;;;;11.40;5.35;;;6.00;66.60;;;;;;5006141;28;20100;-73
2022/02/27 09:45:50;;;;;;;10.13;5.18;;;6.00;66.00;;;;;;5004026;28;20115;-73
2022/02/27 09:48:16;;;;;;;11.00;5.53;;;6.10;65.50;;;;;;5003599;28;20037;-74
2022/02/27 09:50:41;;;;;;;9.90;4.78;;;6.20;65.60;;;;;;5000846;28;20029;-74
2022/02/27 09:53:09;;;;;;;9.18;4.43;;;6.30;65.50;;;;;;5001872;28;20038;-73
2022/02/27 09:55:36;;;;;;;9.90;4.70;;;6.40;65.20;;;;;;5003596;28;20026;-74
2022/02/27 09:58:02;;;;;;;9.48;4.85;;;6.40;64.80;;;;;;5000264;28;20034;-73
2022/02/27 10:00:28;;;;;;;10.68;5.00;;;6.50;64.40;;;;;;4998561;28;20026;-73
2022/02/27 10:03:15;;;;;;;10.05;4.97;;;6.50;64.00;;;;;;5001704;28;20057;-73
2022/02/27 10:05:42;;;;;;;8.63;4.70;;;6.60;63.20;;;;;;5001368;28;20025;-73
2022/02/27 10:08:09;;;;;;;9.70;4.60;;;6.60;62.90;;;;;;5002476;28;20118;-72
2022/02/27 10:10:36;;;;;;;8.55;4.40;;;6.60;62.50;;;;;;5007266;28;20476;-73
2022/02/27 10:13:02;;;;;;;8.18;4.07;;;6.70;62.50;;;;;;5004433;28;20030;-73
2022/02/27 10:15:28;;;;;;;7.65;3.97;;;6.80;62.40;;;;;;5000831;28;20436;-72
2022/02/27 10:17:54;;;;;;;9.10;4.75;;;6.80;62.00;;;;;;5002675;28;20127;-72
2022/02/27 10:20:23;;;;;;;7.68;4.13;;;6.90;61.10;;;;;;5004275;28;20022;-72
2022/02/27 10:22:53;;;;;;;11.93;4.53;;;7.00;61.10;;;;;;5003258;28;20018;-71
2022/02/27 10:25:21;;;;;;;7.97;4.57;;;7.00;59.60;;;;;;5004302;28;20097;-72
2022/02/27 10:27:49;;;;;;;8.00;3.88;;;7.00;59.30;;;;;;5006678;28;20022;-72
2022/02/27 10:30:19;;;;;;;5.85;3.53;;;7.10;58.90;;;;;;5006642;28;20109;-71
2022/02/27 10:32:50;;;;;;;7.53;3.38;;;7.10;59.00;;;;;;5005376;28;20037;-72
2022/02/27 10:35:42;;;;;;;7.32;3.90;;;7.20;59.00;;;;;;5004390;28;20519;-71
2022/02/27 10:38:10;;;;;;;10.27;4.72;;;7.20;58.40;;;;;;5005463;28;20455;-72
2022/02/27 10:40:39;;;;;;;7.38;3.65;;;7.20;58.10;;;;;;5006769;28;20025;-72
2022/02/27 10:43:07;;;;;;;7.72;4.25;;;7.20;58.40;;;;;;5005928;28;20038;-73
2022/02/27 10:45:32;;;;;;;10.25;4.43;;;7.20;58.50;;;;;;5008075;28;20041;-73
2022/02/27 10:48:17;;;;;;;10.25;4.45;;;7.30;58.60;;;;;;5001136;28;20077;-72
2022/02/27 10:50:44;;;;;;;7.32;4.28;;;7.30;58.30;;;;;;5006060;28;20388;-72
2022/02/27 10:53:13;;;;;;;7.90;3.97;;;7.30;58.60;;;;;;5006933;28;20041;-72
2022/02/27 10:55:38;;;;;;;9.20;4.10;;;7.40;58.70;;;;;;4999824;28;20493;-73
2022/02/27 10:58:07;;;;;;;8.77;4.68;;;7.50;58.60;;;;;;5005682;28;20034;-73
2022/02/27 11:00:35;;;;;;;8.73;4.10;;;7.50;58.10;;;;;;4999303;28;20397;-74
2022/02/27 11:03:05;;;;;;;9.73;4.90;;;7.50;57.90;;;;;;5005041;28;20021;-73
2022/02/27 11:05:34;;;;;;;8.85;4.50;;;7.50;57.60;;;;;;5000246;28;20153;-73
2022/02/27 11:08:04;;;;;;;7.07;4.18;;;7.60;58.20;;;;;;5006700;28;20838;-73
2022/02/27 11:10:32;;;;;;;9.90;4.32;;;7.60;57.70;;;;;;5004531;28;20580;-72
2022/02/27 11:13:04;;;;;;;8.27;4.72;;;7.60;57.50;;;;;;5002318;28;20048;-72
2022/02/27 11:15:30;;;;;;;9.18;4.03;;;7.60;56.80;;;;;;5005297;28;20401;-73
2022/02/27 11:17:56;;;;;;;10.20;4.50;;;7.60;57.00;;;;;;4997335;28;20037;-73
2022/02/27 11:20:23;;;;;;;7.22;3.75;;;7.60;56.80;;;;;;5005844;28;20037;-73
2022/02/27 11:22:51;;;;;;;10.30;4.43;;;7.60;56.90;;;;;;5006105;28;20465;-73
2022/02/27 11:25:17;;;;;;;8.02;4.18;;;7.60;56.50;;;;;;5005673;28;20113;-73
2022/02/27 11:27:50;;;;;;;6.95;4.43;;;7.60;56.70;;;;;;5009261;28;20022;-73
2022/02/27 11:30:21;;;;;;;10.15;4.40;;;7.70;56.60;;;;;;5006279;28;20022;-72
2022/02/27 11:32:49;;;;;;;9.67;4.13;;;7.70;56.90;;;;;;5008992;28;20022;-72
2022/02/27 11:35:38;;;;;;;7.35;4.30;;;7.80;56.40;;;;;;5003708;28;20026;-72
2022/02/27 11:38:06;;;;;;;9.07;4.72;;;7.70;56.20;;;;;;5008996;28;20050;-72
2022/02/27 11:40:47;;;;;;;7.95;3.83;;;7.90;56.60;;;;;;5010191;28;20030;-72
2022/02/27 11:43:18;;;;;;;9.10;4.28;;;7.90;56.30;;;;;;5010156;28;20071;-72
2022/02/27 11:45:46;;;;;;;6.20;3.95;;;8.00;56.60;;;;;;5003301;28;20034;-72
2022/02/27 11:48:12;;;;;;;8.00;3.95;;;8.10;56.20;;;;;;5003914;28;20056;-72
2022/02/27 11:50:40;;;;;;;8.07;3.85;;;8.00;56.00;;;;;;5003475;28;20034;-73
2022/02/27 11:53:23;;;;;;;10.35;4.35;;;8.10;56.50;;;;;;5003898;28;20030;-72
2022/02/27 11:55:49;;;;;;;8.95;4.38;;;8.20;56.60;;;;;;5003994;28;20029;-72
2022/02/27 11:58:18;;;;;;;10.10;5.03;;;8.30;56.00;;;;;;5000481;28;20037;-73
2022/02/27 12:00:44;;;;;;;6.88;3.60;;;8.30;55.90;;;;;;5000457;28;20100;-72
2022/02/27 12:03:29;;;;;;;10.10;4.70;;;8.40;56.10;;;;;;5001030;28;20125;-72
2022/02/27 12:05:56;;;;;;;7.68;4.40;;;8.40;55.40;;;;;;5003948;28;20092;-73
2022/02/27 12:08:42;;;;;;;9.50;4.47;;;8.30;55.00;;;;;;5007785;28;20041;-73
2022/02/27 12:11:26;;;;;;;6.70;4.10;;;8.40;55.20;;;;;;5005058;28;20018;-73
2022/02/27 12:13:58;;;;;;;5.55;3.83;;;8.40;55.90;;;;;;5004345;28;20403;-73
2022/02/27 12:16:47;;;;;;;7.35;4.22;;;8.40;55.60;;;;;;5004681;28;20018;-73
2022/02/27 12:19:21;;;;;;;10.43;4.25;;;8.50;55.20;;;;;;5002395;28;20029;-73
2022/02/27 12:21:46;;;;;;;7.47;4.13;;;8.60;55.80;;;;;;5005407;28;20381;-73
2022/02/27 12:24:14;;;;;;;7.55;4.03;;;8.80;55.60;;;;;;5004934;28;20105;-73
2022/02/27 12:26:43;;;;;;;10.32;4.13;;;8.80;54.40;;;;;;5007359;28;20628;-73
2022/02/27 12:29:41;;;;;;;5.40;3.92;;;8.80;54.30;;;;;;5003469;28;20022;-73
2022/02/27 12:32:25;;;;;;;8.50;4.55;;;8.80;54.20;;;;;;5006543;28;20022;-73
2022/02/27 12:34:53;;;;;;;9.80;4.07;;;8.90;54.10;;;;;;4997448;28;20042;-73
2022/02/27 12:37:19;;;;;;;6.97;4.07;;;9.00;54.00;;;;;;4997271;28;20026;-72
2022/02/27 12:39:47;;;;;;;7.22;3.78;;;9.20;53.60;;;;;;4995228;28;20033;-72
2022/02/27 12:42:18;;;;;;;7.18;3.63;;;9.30;53.10;;;;;;5003471;28;20096;-72
2022/02/27 12:44:46;;;;;;;7.28;3.70;;;9.40;53.00;;;;;;5001817;28;20029;-73
2022/02/27 12:47:15;;;;;;;7.95;3.95;;;9.40;52.30;;;;;;4999453;28;20516;-73
2022/02/27 12:52:37;;;;;;;6.13;3.30;;;9.40;51.80;;;;;;5005135;28;20072;-73